createdAt,value
2022-11-18T00:01:46.620Z,36.15
2022-11-18T00:04:14.386Z,36.27
2022-11-18T00:06:42.107Z,36.24
2022-11-18T00:09:10.027Z,36.60
2022-11-18T00:11:55.492Z,36.42
2022-11-18T00:14:23.659Z,36.34
2022-11-18T00:16:51.487Z,36.25
2022-11-18T00:19:19.696Z,36.68
2022-11-18T00:21:47.735Z,36.40
2022-11-18T00:24:15.546Z,36.62
2022-11-18T00:26:43.394Z,36.40
2022-11-18T00:29:11.671Z,36.65
2022-11-18T00:31:39.407Z,36.55
2022-11-18T00:34:07.224Z,36.65
2022-11-18T00:36:35.057Z,36.36
2022-11-18T00:39:02.879Z,36.42
2022-11-18T00:41:50.662Z,36.43
2022-11-18T00:44:17.420Z,36.37
2022-11-18T00:46:45.365Z,36.26
2022-11-18T00:49:13.125Z,36.22
2022-11-18T00:51:40.969Z,36.65
2022-11-18T00:54:08.781Z,36.68
2022-11-18T00:56:36.549Z,36.40
2022-11-18T00:59:04.280Z,36.42
2022-11-18T01:01:32.237Z,36.54
2022-11-18T01:04:00.168Z,36.55
2022-11-18T01:06:27.953Z,36.45
2022-11-18T01:08:55.683Z,36.80
2022-11-18T01:11:40.789Z,36.39
2022-11-18T01:14:08.544Z,36.32
2022-11-18T01:16:36.347Z,36.08
2022-11-18T01:19:04.102Z,36.11
2022-11-18T01:21:31.874Z,36.71
2022-11-18T01:23:59.667Z,36.45
2022-11-18T01:26:27.423Z,36.37
2022-11-18T01:28:55.246Z,36.65
2022-11-18T01:31:23.015Z,36.64
2022-11-18T01:33:50.810Z,36.61
2022-11-18T01:36:18.621Z,36.28
2022-11-18T01:38:46.373Z,36.48
2022-11-18T01:41:14.218Z,36.24
2022-11-18T01:43:42.074Z,36.60
2022-11-18T01:46:09.939Z,36.18
2022-11-18T01:48:39.224Z,36.46
2022-11-18T01:51:06.984Z,36.78
2022-11-18T01:53:35.021Z,37.07
2022-11-18T01:56:02.777Z,36.80
2022-11-18T01:58:30.517Z,36.58
2022-11-18T02:00:58.297Z,36.71
2022-11-18T02:03:26.095Z,36.51
2022-11-18T02:05:53.948Z,36.70
2022-11-18T02:08:21.937Z,36.46
2022-11-18T02:10:49.660Z,36.48
2022-11-18T02:13:17.663Z,36.18
2022-11-18T02:15:45.468Z,36.50
2022-11-18T02:18:13.237Z,36.31
2022-11-18T02:20:41.023Z,36.24
2022-11-18T02:23:08.796Z,36.09
2022-11-18T02:25:36.569Z,36.37
2022-11-18T02:28:04.355Z,36.53
2022-11-18T02:30:32.162Z,36.54
2022-11-18T02:32:59.942Z,36.37
2022-11-18T02:35:27.734Z,36.08
2022-11-18T02:37:55.534Z,36.27
2022-11-18T02:40:23.313Z,36.41
2022-11-18T02:42:51.115Z,36.19
2022-11-18T02:45:18.871Z,36.61
2022-11-18T02:47:46.725Z,36.38
2022-11-18T02:50:14.469Z,36.67
2022-11-18T02:52:42.324Z,36.92
2022-11-18T02:55:10.080Z,36.45
2022-11-18T02:57:37.866Z,37.00
2022-11-18T03:00:05.665Z,36.40
2022-11-18T03:02:33.529Z,36.49
2022-11-18T03:05:01.304Z,36.57
2022-11-18T03:07:29.176Z,36.32
2022-11-18T03:09:57.040Z,36.39
2022-11-18T03:12:24.849Z,36.71
2022-11-18T03:14:52.657Z,36.58
2022-11-18T03:17:20.379Z,36.50
2022-11-18T03:19:48.196Z,36.64
2022-11-18T03:22:15.977Z,36.40
2022-11-18T03:24:43.803Z,36.62
2022-11-18T03:27:13.053Z,36.97
2022-11-18T03:29:40.815Z,36.83
2022-11-18T03:32:08.570Z,36.60
2022-11-18T03:34:36.320Z,36.76
2022-11-18T03:37:09.047Z,36.72
2022-11-18T03:39:38.319Z,36.46
2022-11-18T03:42:06.097Z,36.77
2022-11-18T03:44:33.915Z,36.62
2022-11-18T03:47:01.699Z,36.35
2022-11-18T03:49:30.259Z,36.86
2022-11-18T03:51:58.129Z,36.20
2022-11-18T03:54:25.888Z,36.44
2022-11-18T03:56:53.706Z,36.76
2022-11-18T03:59:21.589Z,36.36
2022-11-18T04:01:49.805Z,36.47
2022-11-18T04:04:17.660Z,36.44
2022-11-18T04:06:45.411Z,36.91
2022-11-18T04:09:13.166Z,36.81
2022-11-18T04:11:58.419Z,36.85
2022-11-18T04:14:26.216Z,36.69
2022-11-18T04:16:54.175Z,36.66
2022-11-18T04:19:22.268Z,36.75
2022-11-18T04:21:50.289Z,36.51
2022-11-18T04:24:18.049Z,36.61
2022-11-18T04:26:45.852Z,36.42
2022-11-18T04:29:13.650Z,36.95
2022-11-18T04:31:41.382Z,36.66
2022-11-18T04:34:09.202Z,36.58
2022-11-18T04:36:36.967Z,36.46
2022-11-18T04:39:04.739Z,36.23
2022-11-18T04:41:49.812Z,36.26
2022-11-18T04:44:17.631Z,36.83
2022-11-18T04:46:45.363Z,36.27
2022-11-18T04:49:13.274Z,36.18
2022-11-18T04:51:41.084Z,36.27
2022-11-18T04:54:08.870Z,36.13
2022-11-18T04:56:36.709Z,36.20
2022-11-18T04:59:04.487Z,36.17
2022-11-18T05:01:32.432Z,36.26
2022-11-18T05:04:00.285Z,36.07
2022-11-18T05:06:28.202Z,36.23
2022-11-18T05:08:56.150Z,36.62
2022-11-18T05:11:41.330Z,36.70
2022-11-18T05:14:09.306Z,36.65
2022-11-18T05:16:37.182Z,36.66
2022-11-18T05:19:05.497Z,36.29
2022-11-18T05:21:33.397Z,36.65
2022-11-18T05:24:01.259Z,36.80
2022-11-18T05:26:29.158Z,37.12
2022-11-18T05:28:57.031Z,36.59
2022-11-18T05:31:24.837Z,36.82
2022-11-18T05:33:52.733Z,36.46
2022-11-18T05:36:20.473Z,36.63
2022-11-18T05:38:48.284Z,36.73
2022-11-18T05:41:36.088Z,36.75
2022-11-18T05:44:02.884Z,36.76
2022-11-18T05:46:30.670Z,36.65
2022-11-18T05:48:58.550Z,36.34
2022-11-18T05:51:26.333Z,36.75
2022-11-18T05:53:54.113Z,36.41
2022-11-18T05:56:21.980Z,36.70
2022-11-18T05:58:49.782Z,36.54
2022-11-18T06:01:17.701Z,36.49
2022-11-18T06:03:45.469Z,36.53
2022-11-18T06:06:15.516Z,36.38
2022-11-18T06:08:43.303Z,36.29
2022-11-18T06:11:11.183Z,36.32
2022-11-18T06:13:38.979Z,36.50
2022-11-18T06:16:06.793Z,36.35
2022-11-18T06:18:34.738Z,36.66
2022-11-18T06:21:02.555Z,36.30
2022-11-18T06:23:30.451Z,36.22
2022-11-18T06:25:58.190Z,36.16
2022-11-18T06:28:26.070Z,36.24
2022-11-18T06:30:53.931Z,36.29
2022-11-18T06:33:21.761Z,36.24
2022-11-18T06:35:49.533Z,35.89
2022-11-18T06:38:17.410Z,35.89
2022-11-18T06:40:45.357Z,35.86
2022-11-18T06:43:30.880Z,35.75
2022-11-18T06:46:16.023Z,36.30
2022-11-18T06:48:43.896Z,35.95
2022-11-18T06:51:11.709Z,36.01
2022-11-18T06:53:39.514Z,36.71
2022-11-18T06:56:07.429Z,36.02
2022-11-18T06:58:35.249Z,36.14
2022-11-18T07:01:03.183Z,36.33
2022-11-18T07:03:30.997Z,36.09
2022-11-18T07:05:58.774Z,36.42
2022-11-18T07:08:26.542Z,36.25
2022-11-18T07:10:54.283Z,35.94
2022-11-18T07:13:22.114Z,36.02
2022-11-18T07:15:49.930Z,36.59
2022-11-18T07:18:17.911Z,35.72
2022-11-18T07:20:45.803Z,35.33
2022-11-18T07:23:13.601Z,36.24
2022-11-18T07:25:45.144Z,36.16
2022-11-18T07:28:13.236Z,35.93
2022-11-18T07:30:41.092Z,36.12
2022-11-18T07:33:08.857Z,35.67
2022-11-18T07:35:36.732Z,35.83
2022-11-18T07:38:04.503Z,36.07
2022-11-18T07:40:32.370Z,36.25
2022-11-18T07:43:00.179Z,36.01
2022-11-18T07:45:27.941Z,36.07
2022-11-18T07:47:55.776Z,35.86
2022-11-18T07:50:23.731Z,35.95
2022-11-18T07:52:51.556Z,35.85
2022-11-18T07:55:19.311Z,35.54
2022-11-18T07:57:47.108Z,35.70
2022-11-18T08:00:14.947Z,35.49
2022-11-18T08:02:43.820Z,35.72
2022-11-18T08:05:17.695Z,36.06
2022-11-18T08:07:45.979Z,35.86
2022-11-18T08:10:13.758Z,35.94
2022-11-18T08:12:41.499Z,35.54
2022-11-18T08:15:09.269Z,35.97
2022-11-18T08:17:37.074Z,35.79
2022-11-18T08:20:04.867Z,36.05
2022-11-18T08:22:32.627Z,35.63
2022-11-18T08:25:00.402Z,35.46
2022-11-18T08:27:28.163Z,35.58
2022-11-18T08:29:55.929Z,35.48
2022-11-18T08:32:23.868Z,35.38
2022-11-18T08:34:51.623Z,35.80
2022-11-18T08:37:19.357Z,35.43
2022-11-18T08:39:47.199Z,35.58
2022-11-18T08:42:14.961Z,35.60
2022-11-18T08:44:42.770Z,35.51
2022-11-18T08:47:10.800Z,35.58
2022-11-18T08:49:38.596Z,35.62
2022-11-18T08:52:06.446Z,35.87
2022-11-18T08:54:34.298Z,35.60
2022-11-18T08:57:02.096Z,35.51
2022-11-18T08:59:29.833Z,35.93
2022-11-18T09:01:57.761Z,35.56
2022-11-18T09:04:25.551Z,35.72
2022-11-18T09:06:53.364Z,35.31
2022-11-18T09:09:21.394Z,35.84
2022-11-18T09:11:49.292Z,35.58
2022-11-18T09:15:12.325Z,35.83
2022-11-18T09:17:06.280Z,35.92
2022-11-18T09:19:52.086Z,35.44
2022-11-18T09:22:19.844Z,35.40
2022-11-18T09:24:47.642Z,35.55
2022-11-18T09:27:17.337Z,35.41
2022-11-18T09:29:45.703Z,35.51
2022-11-18T09:32:13.544Z,35.53
2022-11-18T09:34:41.353Z,35.33
2022-11-18T09:37:09.094Z,35.72
2022-11-18T09:39:37.613Z,35.34
2022-11-18T09:42:05.477Z,34.69
2022-11-18T09:44:33.284Z,34.73
2022-11-18T09:47:01.063Z,33.87
2022-11-18T09:49:28.883Z,31.51
2022-11-18T09:51:56.664Z,29.79
2022-11-18T09:54:24.399Z,29.96
2022-11-18T09:56:52.289Z,29.74
2022-11-18T09:59:20.173Z,29.82
2022-11-18T10:01:48.036Z,29.25
2022-11-18T10:04:16.787Z,29.90
2022-11-18T10:06:44.650Z,30.57
2022-11-18T10:09:13.387Z,30.53
2022-11-18T10:11:42.730Z,30.71
2022-11-18T10:14:12.949Z,31.08
2022-11-18T10:16:42.297Z,31.17
2022-11-18T10:19:10.054Z,31.40
2022-11-18T10:21:37.791Z,31.19
2022-11-18T10:24:05.548Z,31.55
2022-11-18T10:26:33.322Z,31.79
2022-11-18T10:29:01.133Z,31.66
2022-11-18T10:31:28.879Z,32.05
2022-11-18T10:33:56.664Z,31.88
2022-11-18T10:36:24.431Z,32.13
2022-11-18T10:38:52.199Z,32.21
2022-11-18T10:41:20.012Z,32.49
2022-11-18T10:43:48.672Z,32.26
2022-11-18T10:46:16.451Z,32.77
2022-11-18T10:48:44.240Z,32.89
2022-11-18T10:54:21.303Z,33.16
2022-11-18T10:57:06.546Z,32.91
2022-11-18T10:59:35.064Z,33.71
2022-11-18T11:02:08.364Z,33.70
2022-11-18T11:04:45.605Z,33.23
2022-11-18T11:07:13.418Z,33.16
2022-11-18T11:09:41.263Z,33.39
2022-11-18T11:12:15.074Z,33.24
2022-11-18T11:14:42.948Z,33.12
2022-11-18T11:17:11.056Z,32.83
2022-11-18T11:19:39.005Z,33.29
2022-11-18T11:22:06.795Z,33.21
2022-11-18T11:24:34.589Z,33.66
2022-11-18T11:29:50.185Z,33.64
2022-11-18T11:32:18.206Z,33.46
2022-11-18T11:34:46.127Z,33.59
2022-11-18T11:37:14.068Z,33.33
2022-11-18T11:39:41.907Z,33.51
2022-11-18T11:42:09.702Z,33.61
2022-11-18T11:44:37.600Z,33.35
2022-11-18T11:47:22.874Z,33.65
2022-11-18T11:49:50.764Z,33.50
2022-11-18T11:52:18.610Z,33.38
2022-11-18T11:54:46.447Z,33.92
2022-11-18T11:57:14.344Z,33.70
2022-11-18T11:59:42.272Z,33.80
2022-11-18T12:02:15.691Z,33.72
2022-11-18T12:04:43.714Z,33.71
2022-11-18T12:07:11.823Z,33.38
2022-11-18T12:09:39.702Z,33.80
2022-11-18T12:12:27.564Z,33.94
2022-11-18T12:14:55.424Z,33.85
2022-11-18T12:17:23.299Z,33.79
2022-11-18T12:19:51.098Z,33.80
2022-11-18T12:22:18.874Z,33.86
2022-11-18T12:24:46.838Z,33.59
2022-11-18T12:27:14.724Z,34.04
2022-11-18T12:29:42.583Z,33.83
2022-11-18T12:32:10.430Z,34.04
2022-11-18T12:34:38.346Z,34.20
2022-11-18T12:37:06.185Z,34.28
2022-11-18T12:39:33.979Z,34.36
2022-11-18T12:42:19.688Z,34.11
2022-11-18T12:44:47.516Z,34.22
2022-11-18T12:47:15.529Z,34.30
2022-11-18T12:49:43.338Z,34.42
2022-11-18T12:52:11.499Z,34.33
2022-11-18T12:54:39.424Z,34.17
2022-11-18T12:57:07.314Z,33.78
2022-11-18T12:59:35.594Z,33.75
2022-11-18T13:02:03.459Z,33.57
2022-11-18T13:04:31.397Z,33.99
2022-11-18T13:07:02.896Z,33.73
2022-11-18T13:09:30.949Z,33.67
2022-11-18T13:11:58.959Z,33.81
2022-11-18T13:14:44.371Z,33.58
2022-11-18T13:17:30.058Z,33.57
2022-11-18T13:19:58.128Z,33.51
2022-11-18T13:22:43.378Z,33.56
2022-11-18T13:25:11.262Z,33.23
2022-11-18T13:27:39.147Z,33.45
2022-11-18T13:30:08.839Z,33.39
2022-11-18T13:32:36.691Z,33.23
2022-11-18T13:35:05.381Z,33.47
2022-11-18T13:37:34.170Z,33.46
2022-11-18T13:40:02.033Z,33.43
2022-11-18T13:42:29.954Z,33.23
2022-11-18T13:44:57.861Z,33.30
2022-11-18T13:47:25.746Z,33.54
2022-11-18T13:49:54.970Z,33.20
2022-11-18T13:52:23.047Z,33.71
2022-11-18T13:54:50.953Z,33.78
2022-11-18T13:57:19.851Z,33.52
2022-11-18T13:59:47.810Z,33.37
2022-11-18T14:02:15.719Z,33.73
2022-11-18T14:04:43.569Z,33.42
2022-11-18T14:07:11.493Z,33.44
2022-11-18T14:09:39.391Z,33.45
2022-11-18T14:12:07.625Z,33.80
2022-11-18T14:14:35.550Z,33.55
2022-11-18T14:17:03.432Z,33.59
2022-11-18T14:19:31.343Z,33.58
2022-11-18T14:21:59.211Z,33.32
2022-11-18T14:24:27.073Z,33.11
2022-11-18T14:26:54.941Z,33.76
2022-11-18T14:29:23.389Z,33.47
2022-11-18T14:31:51.350Z,33.59
2022-11-18T14:34:19.635Z,33.70
2022-11-18T14:36:47.474Z,33.85
2022-11-18T14:39:30.559Z,34.03
2022-11-18T14:41:58.469Z,33.77
2022-11-18T14:44:26.337Z,34.22
2022-11-18T14:46:55.436Z,29.76
2022-11-18T14:49:23.621Z,18.60
2022-11-18T14:51:51.747Z,13.51
2022-11-18T14:54:25.942Z,10.96
2022-11-18T14:56:54.979Z,9.52
2022-11-18T14:59:22.851Z,8.65
2022-11-18T15:01:50.845Z,8.32
2022-11-18T15:04:21.003Z,7.91
2022-11-18T15:06:49.248Z,7.47
2022-11-18T15:09:17.171Z,7.40
2022-11-18T15:11:45.084Z,7.44
2022-11-18T15:14:12.950Z,6.97
2022-11-18T15:16:40.856Z,7.13
2022-11-18T15:19:08.762Z,6.75
2022-11-18T15:21:36.637Z,7.01
2022-11-18T15:24:08.877Z,7.30
2022-11-18T15:26:37.379Z,7.93
2022-11-18T15:29:05.237Z,8.56
2022-11-18T15:31:33.069Z,9.49
2022-11-18T15:34:06.402Z,10.27
2022-11-18T15:36:46.286Z,11.38
2022-11-18T15:39:14.161Z,12.02
2022-11-18T15:41:42.070Z,12.97
2022-11-18T15:44:10.084Z,13.82
2022-11-18T15:46:39.467Z,14.41
2022-11-18T15:49:09.471Z,15.54
2022-11-18T15:51:37.865Z,16.51
2022-11-18T15:54:05.774Z,17.08
2022-11-18T15:56:33.953Z,17.85
2022-11-18T15:59:01.812Z,18.63
2022-11-18T16:01:29.783Z,19.31
2022-11-18T16:03:57.727Z,19.82
2022-11-18T16:06:25.647Z,20.31
2022-11-18T16:08:59.237Z,20.26
2022-11-18T16:11:45.483Z,21.31
2022-11-18T16:14:13.391Z,21.50
2022-11-18T16:16:41.294Z,22.41
2022-11-18T16:19:09.190Z,22.82
2022-11-18T16:21:37.119Z,22.98
2022-11-18T16:24:05.050Z,22.82
2022-11-18T16:26:32.975Z,23.54
2022-11-18T16:29:00.861Z,23.97
2022-11-18T16:31:44.744Z,24.57
2022-11-18T16:34:12.677Z,24.85
2022-11-18T16:36:40.537Z,24.77
2022-11-18T16:39:08.680Z,24.83
2022-11-18T16:41:36.565Z,25.42
2022-11-18T16:44:04.658Z,25.95
2022-11-18T16:46:32.610Z,25.60
2022-11-18T16:49:00.550Z,26.22
2022-11-18T16:51:28.478Z,26.30
2022-11-18T16:53:56.300Z,24.97
2022-11-18T16:56:24.086Z,23.73
2022-11-18T16:58:51.832Z,23.74
2022-11-18T17:01:24.685Z,23.43
2022-11-18T17:03:55.694Z,23.93
2022-11-18T17:06:23.467Z,23.99
2022-11-18T17:08:51.347Z,24.10
2022-11-18T17:11:19.075Z,24.55
2022-11-18T17:13:46.924Z,24.21
2022-11-18T17:16:14.692Z,24.86
2022-11-18T17:18:42.495Z,24.67
2022-11-18T17:21:11.044Z,24.96
2022-11-18T17:23:38.966Z,25.21
2022-11-18T17:26:08.874Z,24.92
2022-11-18T17:28:36.708Z,25.05
2022-11-18T17:31:04.497Z,25.03
2022-11-18T17:33:32.264Z,25.56
2022-11-18T17:36:00.573Z,25.55
2022-11-18T17:38:28.430Z,25.05
2022-11-18T17:40:56.253Z,23.60
2022-11-18T17:43:24.019Z,22.91
2022-11-18T17:45:52.361Z,22.40
2022-11-18T17:48:20.149Z,22.17
2022-11-18T17:50:48.276Z,22.42
2022-11-18T17:53:16.206Z,22.63
2022-11-18T17:55:44.394Z,22.41
2022-11-18T17:58:12.164Z,22.87
2022-11-18T18:00:39.905Z,22.40
2022-11-18T18:03:07.694Z,23.02
2022-11-18T18:05:37.817Z,24.15
2022-11-18T18:08:09.943Z,22.91
2022-11-18T18:10:37.815Z,18.16
2022-11-18T18:13:23.490Z,13.79
2022-11-18T18:15:51.764Z,11.25
2022-11-18T18:18:19.535Z,9.74
2022-11-18T18:20:47.512Z,9.42
2022-11-18T18:23:15.300Z,8.83
2022-11-18T18:25:43.216Z,8.82
2022-11-18T18:28:11.410Z,9.20
2022-11-18T18:30:39.204Z,9.50
2022-11-18T18:33:07.005Z,9.97
2022-11-18T18:35:35.353Z,11.27
2022-11-18T18:38:03.163Z,12.15
2022-11-18T18:40:31.048Z,12.96
2022-11-18T18:42:58.795Z,13.37
2022-11-18T18:45:40.329Z,14.55
2022-11-18T18:48:08.346Z,14.93
2022-11-18T18:50:36.139Z,15.55
2022-11-18T18:53:03.944Z,16.43
2022-11-18T18:55:31.845Z,16.86
2022-11-18T18:57:59.688Z,17.39
2022-11-18T19:00:27.462Z,18.40
2022-11-18T19:02:55.571Z,18.02
2022-11-18T19:05:44.682Z,18.19
2022-11-18T19:08:11.442Z,18.56
2022-11-18T19:10:39.314Z,19.71
2022-11-18T19:13:06.286Z,19.93
2022-11-18T19:15:34.958Z,20.45
2022-11-18T19:18:03.038Z,20.70
2022-11-18T19:20:37.652Z,20.87
2022-11-18T19:23:10.111Z,21.12
2022-11-18T19:25:38.519Z,20.97
2022-11-18T19:28:06.581Z,20.96
2022-11-18T19:30:34.389Z,21.28
2022-11-18T19:33:02.426Z,21.02
2022-11-18T19:35:30.220Z,21.82
2022-11-18T19:37:58.064Z,21.44
2022-11-18T19:40:25.873Z,21.52
2022-11-18T19:42:53.598Z,22.03
2022-11-18T19:45:21.540Z,22.42
2022-11-18T19:47:49.301Z,22.77
2022-11-18T19:50:17.071Z,23.15
2022-11-18T19:52:44.833Z,23.31
2022-11-18T19:55:12.863Z,23.47
2022-11-18T19:57:40.867Z,23.68
2022-11-18T20:00:08.736Z,23.94
2022-11-18T20:02:36.656Z,24.01
2022-11-18T20:05:22.063Z,24.48
2022-11-18T20:07:50.028Z,24.94
2022-11-18T20:10:17.822Z,25.31
2022-11-18T20:12:45.905Z,25.54
2022-11-18T20:15:13.760Z,25.62
2022-11-18T20:17:41.507Z,26.25
2022-11-18T20:20:09.317Z,26.17
2022-11-18T20:22:37.257Z,26.19
2022-11-18T20:25:05.211Z,25.94
2022-11-18T20:27:33.075Z,26.73
2022-11-18T20:30:00.837Z,26.61
2022-11-18T20:32:28.722Z,26.97
2022-11-18T20:34:56.578Z,27.38
2022-11-18T20:37:27.868Z,27.13
2022-11-18T20:39:56.006Z,27.31
2022-11-18T20:42:41.321Z,27.49
2022-11-18T20:45:09.246Z,27.40
2022-11-18T20:47:37.236Z,27.65
2022-11-18T20:50:05.062Z,27.83
2022-11-18T20:52:33.108Z,27.88
2022-11-18T20:55:05.445Z,27.95
2022-11-18T20:57:33.800Z,28.19
2022-11-18T21:00:01.779Z,28.03
2022-11-18T21:02:29.553Z,28.04
2022-11-18T21:04:57.328Z,28.14
2022-11-18T21:07:25.240Z,28.30
2022-11-18T21:09:53.024Z,28.26
2022-11-18T21:12:21.003Z,28.29
2022-11-18T21:14:48.509Z,28.64
2022-11-18T21:17:16.311Z,28.51
2022-11-18T21:19:47.412Z,28.76
2022-11-18T21:22:15.505Z,28.77
2022-11-18T21:24:43.407Z,28.70
2022-11-18T21:27:11.221Z,29.22
2022-11-18T21:29:39.440Z,29.19
2022-11-18T21:32:07.209Z,29.21
2022-11-18T21:34:35.127Z,29.08
2022-11-18T21:37:02.935Z,29.15
2022-11-18T21:39:30.806Z,29.48
2022-11-18T21:42:09.792Z,29.44
2022-11-18T21:44:37.711Z,29.10
2022-11-18T21:47:05.602Z,29.29
2022-11-18T21:49:33.465Z,29.72
2022-11-18T21:52:01.195Z,29.60
2022-11-18T21:54:29.048Z,29.45
2022-11-18T21:56:56.822Z,29.38
2022-11-18T21:59:24.574Z,29.41
2022-11-18T22:01:52.333Z,29.62
2022-11-18T22:04:34.061Z,30.08
2022-11-18T22:07:02.008Z,30.36
2022-11-18T22:09:35.800Z,30.29
2022-11-18T22:12:07.040Z,30.36
2022-11-18T22:14:35.537Z,30.48
2022-11-18T22:17:03.429Z,30.66
2022-11-18T22:19:31.404Z,30.41
2022-11-18T22:21:59.157Z,30.64
2022-11-18T22:24:27.016Z,30.56
2022-11-18T22:26:54.779Z,30.65
2022-11-18T22:29:24.249Z,30.74
2022-11-18T22:31:52.030Z,30.57
2022-11-18T22:34:19.796Z,30.23
2022-11-18T22:36:47.597Z,30.63
2022-11-18T22:39:15.437Z,30.65
2022-11-18T22:42:01.010Z,30.55
2022-11-18T22:44:28.772Z,30.28
2022-11-18T22:46:56.519Z,30.51
2022-11-18T22:49:24.453Z,30.84
2022-11-18T22:51:52.249Z,30.44
2022-11-18T22:56:48.003Z,30.81
2022-11-18T22:59:15.775Z,30.65
2022-11-18T23:01:43.770Z,30.40
2022-11-18T23:04:11.612Z,30.58
2022-11-18T23:06:39.382Z,30.40
2022-11-18T23:09:07.181Z,30.54
2022-11-18T23:11:52.326Z,30.23
2022-11-18T23:14:20.208Z,30.48
2022-11-18T23:16:47.950Z,30.39
2022-11-18T23:19:15.767Z,30.40
2022-11-18T23:21:43.586Z,30.44
2022-11-18T23:24:11.341Z,30.32
2022-11-18T23:26:39.100Z,30.55
2022-11-18T23:29:06.941Z,30.10
2022-11-18T23:31:34.695Z,30.27
2022-11-18T23:34:02.699Z,30.46
2022-11-18T23:36:30.519Z,30.13
2022-11-18T23:38:58.481Z,30.50
2022-11-18T23:41:26.641Z,30.50
2022-11-18T23:43:54.439Z,30.52
2022-11-18T23:46:22.350Z,30.86
2022-11-18T23:48:50.206Z,30.68
2022-11-18T23:51:17.982Z,30.80
2022-11-18T23:53:45.862Z,31.03
2022-11-18T23:56:13.696Z,30.83
2022-11-18T23:58:41.501Z,30.82
